createdAt,value
2017-05-15T00:00:00.531Z,0
2017-05-15T00:00:41.118Z,0
2017-05-15T00:01:21.691Z,0
2017-05-15T00:02:02.258Z,0
2017-05-15T00:02:42.836Z,0
2017-05-15T00:03:23.407Z,0
2017-05-15T00:04:04.013Z,0
2017-05-15T00:04:44.598Z,0
2017-05-15T00:05:25.178Z,0
2017-05-15T00:06:05.759Z,0
2017-05-15T00:06:46.338Z,0
2017-05-15T00:07:26.912Z,0
2017-05-15T00:08:07.495Z,0
2017-05-15T00:08:48.088Z,0
2017-05-15T00:09:28.727Z,0
2017-05-15T00:10:09.306Z,0
2017-05-15T00:10:49.888Z,0
2017-05-15T00:11:30.495Z,0
2017-05-15T00:12:11.078Z,0
2017-05-15T00:12:51.650Z,0
2017-05-15T00:13:32.266Z,0
2017-05-15T00:14:12.844Z,0
2017-05-15T00:14:53.483Z,0
2017-05-15T00:15:34.054Z,0
2017-05-15T00:16:14.643Z,0
2017-05-15T00:16:55.245Z,0
2017-05-15T00:17:35.823Z,0
2017-05-15T00:18:16.407Z,0
2017-05-15T00:18:57.000Z,0
2017-05-15T00:19:37.567Z,0
2017-05-15T00:20:18.161Z,0
2017-05-15T00:20:58.754Z,0
2017-05-15T00:21:39.385Z,0
2017-05-15T00:22:19.937Z,0
2017-05-15T00:23:00.508Z,0
2017-05-15T00:23:41.080Z,0
2017-05-15T00:24:21.664Z,0
2017-05-15T00:25:02.248Z,0
2017-05-15T00:25:42.824Z,0
2017-05-15T00:26:23.426Z,0
2017-05-15T00:27:03.987Z,0
2017-05-15T00:27:44.568Z,0
2017-05-15T00:28:25.140Z,0
2017-05-15T00:29:05.720Z,0
2017-05-15T00:29:46.306Z,0
2017-05-15T00:30:26.883Z,0
2017-05-15T00:31:07.462Z,0
2017-05-15T00:31:48.038Z,0
2017-05-15T00:32:28.632Z,0
2017-05-15T00:33:09.201Z,0
2017-05-15T00:33:49.781Z,0
2017-05-15T00:34:30.363Z,0
2017-05-15T00:35:10.956Z,0
2017-05-15T00:35:51.548Z,0
2017-05-15T00:36:32.124Z,0
2017-05-15T00:37:12.688Z,0
2017-05-15T00:37:53.262Z,0
2017-05-15T00:38:33.849Z,0
2017-05-15T00:39:14.422Z,0
2017-05-15T00:39:54.987Z,0
2017-05-15T00:40:35.559Z,0
2017-05-15T00:41:16.143Z,0
2017-05-15T00:41:56.712Z,0
2017-05-15T00:42:37.285Z,0
2017-05-15T00:43:17.853Z,0
2017-05-15T00:43:58.424Z,0
2017-05-15T00:44:39.001Z,0
2017-05-15T00:45:19.589Z,0
2017-05-15T00:46:00.161Z,0
2017-05-15T00:46:40.746Z,0
2017-05-15T00:47:21.346Z,0
2017-05-15T00:48:01.917Z,0
2017-05-15T00:48:42.482Z,0
2017-05-15T00:49:23.056Z,0
2017-05-15T00:50:03.638Z,0
2017-05-15T00:50:44.205Z,0
2017-05-15T00:51:24.846Z,0
2017-05-15T00:52:05.422Z,0
2017-05-15T00:52:45.991Z,0
2017-05-15T00:53:26.583Z,0
2017-05-15T00:54:07.163Z,0
2017-05-15T00:54:47.760Z,0
2017-05-15T00:55:28.327Z,0
2017-05-15T00:56:08.914Z,0
2017-05-15T00:56:49.485Z,0
2017-05-15T00:57:30.070Z,0
2017-05-15T00:58:10.643Z,0
2017-05-15T00:58:51.204Z,0
2017-05-15T00:59:31.776Z,0
2017-05-15T01:00:12.357Z,0
2017-05-15T01:00:52.950Z,0
2017-05-15T01:01:33.526Z,0
2017-05-15T01:02:14.095Z,0
2017-05-15T01:02:54.681Z,0
2017-05-15T01:03:35.259Z,0
2017-05-15T01:04:15.838Z,0
2017-05-15T01:04:56.424Z,0
2017-05-15T01:05:37.007Z,0
2017-05-15T01:06:17.579Z,0
2017-05-15T01:06:58.149Z,0
2017-05-15T01:07:38.724Z,0
2017-05-15T01:08:19.332Z,0
2017-05-15T01:08:59.900Z,0
2017-05-15T01:09:40.467Z,0
2017-05-15T01:10:21.052Z,0
2017-05-15T01:11:01.628Z,0
2017-05-15T01:11:42.206Z,0
2017-05-15T01:12:22.807Z,0
2017-05-15T01:13:03.378Z,0
2017-05-15T01:13:43.957Z,0
2017-05-15T01:14:24.527Z,0
2017-05-15T01:15:05.117Z,0
2017-05-15T01:15:45.675Z,0
2017-05-15T01:16:26.243Z,0
2017-05-15T01:17:06.826Z,0
2017-05-15T01:17:47.424Z,0
2017-05-15T01:18:27.979Z,0
2017-05-15T01:19:08.559Z,0
2017-05-15T01:19:49.136Z,0
2017-05-15T01:20:29.707Z,0
2017-05-15T01:21:10.283Z,0
2017-05-15T01:21:50.862Z,0
2017-05-15T01:22:31.442Z,0
2017-05-15T01:23:12.012Z,0
2017-05-15T01:23:52.589Z,0
2017-05-15T01:24:33.202Z,0
2017-05-15T01:25:13.769Z,0
2017-05-15T01:25:54.339Z,0
2017-05-15T01:26:34.907Z,0
2017-05-15T01:27:15.487Z,0
2017-05-15T01:27:56.057Z,0
2017-05-15T01:28:36.640Z,0
2017-05-15T01:29:17.218Z,0
2017-05-15T01:29:57.801Z,0
2017-05-15T01:30:38.380Z,0
2017-05-15T01:31:18.970Z,0
2017-05-15T01:31:59.540Z,0
2017-05-15T01:32:40.106Z,0
2017-05-15T01:33:20.744Z,0
2017-05-15T01:34:01.334Z,0
2017-05-15T01:34:41.934Z,0
2017-05-15T01:35:22.507Z,0
2017-05-15T01:36:03.079Z,0
2017-05-15T01:36:43.832Z,0
2017-05-15T01:37:24.401Z,0
2017-05-15T01:38:05.004Z,0
2017-05-15T01:38:45.634Z,0
2017-05-15T01:39:26.194Z,0
2017-05-15T01:40:06.764Z,0
2017-05-15T01:40:47.383Z,0
2017-05-15T01:41:27.944Z,0
2017-05-15T01:42:08.525Z,0
2017-05-15T01:42:49.110Z,0
2017-05-15T01:43:29.686Z,0
2017-05-15T01:44:10.277Z,0
2017-05-15T01:44:50.849Z,0
2017-05-15T01:45:31.463Z,0
2017-05-15T01:46:12.028Z,0
2017-05-15T01:46:52.610Z,0
2017-05-15T01:47:33.199Z,0
2017-05-15T01:48:13.769Z,0
2017-05-15T01:48:54.332Z,0
2017-05-15T01:49:34.934Z,0
2017-05-15T01:50:15.513Z,0
2017-05-15T01:50:56.088Z,0
2017-05-15T01:51:36.740Z,0
2017-05-15T01:52:17.332Z,0
2017-05-15T01:52:57.928Z,0
2017-05-15T01:53:38.511Z,0
2017-05-15T01:54:19.086Z,0
2017-05-15T01:54:59.681Z,0
2017-05-15T01:55:40.253Z,0
2017-05-15T01:56:20.833Z,0
2017-05-15T01:57:01.437Z,0
2017-05-15T01:57:42.006Z,0
2017-05-15T01:58:22.611Z,0
2017-05-15T01:59:03.193Z,0
2017-05-15T01:59:43.760Z,0
2017-05-15T02:00:24.342Z,0
2017-05-15T02:01:04.908Z,0
2017-05-15T02:01:45.495Z,0
2017-05-15T02:02:26.081Z,0
2017-05-15T02:03:06.662Z,0
2017-05-15T02:03:47.258Z,0
2017-05-15T02:04:27.848Z,0
2017-05-15T02:05:08.428Z,0
2017-05-15T02:05:49.007Z,0
2017-05-15T02:06:29.587Z,0
2017-05-15T02:07:10.166Z,0
2017-05-15T02:07:50.728Z,0
2017-05-15T02:08:31.304Z,0
2017-05-15T02:09:11.876Z,0
2017-05-15T02:09:52.444Z,0
2017-05-15T02:10:33.076Z,0
2017-05-15T02:11:13.622Z,0
2017-05-15T02:11:54.203Z,0
2017-05-15T02:12:34.781Z,0
2017-05-15T02:13:15.372Z,0
2017-05-15T02:13:55.949Z,0
2017-05-15T02:14:36.524Z,0
2017-05-15T02:15:17.088Z,0
2017-05-15T02:15:57.664Z,0
2017-05-15T02:16:38.234Z,0
2017-05-15T02:17:18.802Z,0
2017-05-15T02:17:59.381Z,0
2017-05-15T02:18:39.972Z,0
2017-05-15T02:19:20.539Z,0
2017-05-15T02:20:01.119Z,0
2017-05-15T02:20:41.696Z,0
2017-05-15T02:21:22.280Z,0
2017-05-15T02:22:02.856Z,0
2017-05-15T02:22:43.427Z,0
2017-05-15T02:23:24.055Z,0
2017-05-15T02:24:04.583Z,0
2017-05-15T02:24:45.153Z,0
2017-05-15T02:25:25.740Z,0
2017-05-15T02:26:06.312Z,0
2017-05-15T02:26:46.896Z,0
2017-05-15T02:27:27.460Z,0
2017-05-15T02:28:08.030Z,0
2017-05-15T02:28:48.616Z,0
2017-05-15T02:29:29.201Z,0
2017-05-15T02:30:09.763Z,0
2017-05-15T02:30:50.330Z,0
2017-05-15T02:31:30.924Z,0
2017-05-15T02:32:11.497Z,0
2017-05-15T02:32:52.068Z,0
2017-05-15T02:33:32.638Z,0
2017-05-15T02:34:13.220Z,0
2017-05-15T02:34:53.820Z,0
2017-05-15T02:35:34.397Z,0
2017-05-15T02:36:14.981Z,0
2017-05-15T02:36:55.544Z,0
2017-05-15T02:37:36.126Z,0
2017-05-15T02:38:16.697Z,0
2017-05-15T02:38:57.265Z,0
2017-05-15T02:39:37.830Z,0
2017-05-15T02:40:18.399Z,0
2017-05-15T02:40:58.981Z,0
2017-05-15T02:41:39.555Z,0
2017-05-15T02:42:20.140Z,0
2017-05-15T02:43:00.760Z,0
2017-05-15T02:43:41.353Z,0
2017-05-15T02:44:21.949Z,0
2017-05-15T02:45:02.523Z,0
2017-05-15T02:45:43.105Z,0
2017-05-15T02:46:23.685Z,0
2017-05-15T02:47:04.266Z,0
2017-05-15T02:47:44.846Z,0
2017-05-15T02:48:25.413Z,0
2017-05-15T02:49:06.017Z,0
2017-05-15T02:49:46.621Z,0
2017-05-15T02:50:27.213Z,0
2017-05-15T02:51:07.786Z,0
2017-05-15T02:51:48.381Z,0
2017-05-15T02:52:28.954Z,0
2017-05-15T02:53:09.536Z,0
2017-05-15T02:53:50.140Z,0
2017-05-15T02:54:30.699Z,0
2017-05-15T02:55:11.273Z,0
2017-05-15T02:55:51.848Z,0
2017-05-15T02:56:32.430Z,0
2017-05-15T02:57:13.029Z,0
2017-05-15T02:57:53.616Z,0
2017-05-15T02:58:34.193Z,0
2017-05-15T02:59:14.765Z,0
2017-05-15T02:59:55.336Z,0
2017-05-15T03:00:35.949Z,0
2017-05-15T03:01:16.546Z,0
2017-05-15T03:01:57.119Z,0
2017-05-15T03:02:37.711Z,0
2017-05-15T03:03:18.275Z,0
2017-05-15T03:03:58.853Z,0
2017-05-15T03:04:39.437Z,0
2017-05-15T03:05:20.028Z,0
2017-05-15T03:06:00.623Z,0
2017-05-15T03:06:41.238Z,0
2017-05-15T03:07:21.815Z,0
2017-05-15T03:08:02.455Z,0
2017-05-15T03:08:43.024Z,0
2017-05-15T03:09:23.983Z,0
2017-05-15T03:10:04.595Z,0
2017-05-15T03:10:45.166Z,0
2017-05-15T03:11:25.741Z,0
2017-05-15T03:12:06.319Z,0
2017-05-15T03:12:46.886Z,0
2017-05-15T03:13:27.478Z,0
2017-05-15T03:14:08.051Z,0
2017-05-15T03:14:48.633Z,0
2017-05-15T03:15:29.234Z,0
2017-05-15T03:16:09.815Z,0
2017-05-15T03:16:50.399Z,0
2017-05-15T03:17:30.968Z,0
2017-05-15T03:18:11.542Z,0
2017-05-15T03:18:52.163Z,0
2017-05-15T03:19:32.723Z,0
2017-05-15T03:20:13.293Z,0
2017-05-15T03:20:53.871Z,0
2017-05-15T03:21:34.441Z,0
2017-05-15T03:22:15.011Z,0
2017-05-15T03:22:55.609Z,0
2017-05-15T03:23:36.214Z,0
2017-05-15T03:24:16.822Z,0
2017-05-15T03:24:57.409Z,0
2017-05-15T03:25:38.003Z,0
2017-05-15T03:26:18.582Z,0
2017-05-15T03:26:59.156Z,0
2017-05-15T03:27:39.742Z,0
2017-05-15T03:28:20.315Z,0
2017-05-15T03:29:00.906Z,0
2017-05-15T03:29:41.482Z,0
2017-05-15T03:30:22.065Z,0
2017-05-15T03:31:02.661Z,0
2017-05-15T03:31:43.236Z,0
2017-05-15T03:32:23.866Z,0
2017-05-15T03:33:04.494Z,0
2017-05-15T03:33:45.067Z,0
2017-05-15T03:34:25.641Z,0
2017-05-15T03:35:06.249Z,0
2017-05-15T03:35:46.902Z,0
2017-05-15T03:36:27.483Z,0
2017-05-15T03:37:08.069Z,0
2017-05-15T03:37:48.644Z,0
2017-05-15T03:38:29.243Z,0
2017-05-15T03:39:09.825Z,0
2017-05-15T03:39:50.393Z,0
2017-05-15T03:40:30.969Z,0
2017-05-15T03:41:11.538Z,0
2017-05-15T03:41:52.108Z,5
2017-05-15T03:42:32.704Z,5
2017-05-15T03:43:13.315Z,5
2017-05-15T03:43:53.904Z,5
2017-05-15T03:44:34.490Z,5
2017-05-15T03:45:15.099Z,5
2017-05-15T03:45:55.701Z,5
2017-05-15T03:46:36.269Z,5
2017-05-15T03:47:16.867Z,5
2017-05-15T03:47:57.480Z,5
2017-05-15T03:48:38.076Z,5
2017-05-15T03:49:18.649Z,5
2017-05-15T03:49:59.221Z,5
2017-05-15T03:50:39.798Z,5
2017-05-15T03:51:20.383Z,5
2017-05-15T03:52:00.959Z,10
2017-05-15T03:52:41.577Z,10
2017-05-15T03:53:22.146Z,10
2017-05-15T03:54:02.741Z,10
2017-05-15T03:54:43.361Z,10
2017-05-15T03:55:23.949Z,10
2017-05-15T03:56:04.541Z,10
2017-05-15T03:56:45.117Z,10
2017-05-15T03:57:25.698Z,10
2017-05-15T03:58:06.297Z,10
2017-05-15T03:58:46.888Z,15
2017-05-15T03:59:27.454Z,15
2017-05-15T04:00:08.060Z,15
2017-05-15T04:00:48.660Z,15
2017-05-15T04:01:29.278Z,15
2017-05-15T04:02:09.852Z,15
2017-05-15T04:02:50.439Z,15
2017-05-15T04:03:31.030Z,15
2017-05-15T04:04:11.667Z,20
2017-05-15T04:04:52.256Z,20
2017-05-15T04:05:32.838Z,20
2017-05-15T04:06:13.414Z,20
2017-05-15T04:06:53.994Z,20
2017-05-15T04:07:34.579Z,20
2017-05-15T04:08:15.174Z,20
2017-05-15T04:08:55.767Z,20
2017-05-15T04:09:36.375Z,20
2017-05-15T04:10:16.949Z,25
2017-05-15T04:10:57.590Z,25
2017-05-15T04:11:38.131Z,25
2017-05-15T04:12:18.709Z,25
2017-05-15T04:12:59.291Z,25
2017-05-15T04:13:39.883Z,25
2017-05-15T04:14:20.480Z,25
2017-05-15T04:15:01.047Z,25
2017-05-15T04:15:41.621Z,30
2017-05-15T04:16:22.189Z,30
2017-05-15T04:17:02.770Z,30
2017-05-15T04:17:43.355Z,30
2017-05-15T04:18:23.946Z,30
2017-05-15T04:19:04.527Z,30
2017-05-15T04:19:45.093Z,30
2017-05-15T04:20:25.664Z,30
2017-05-15T04:21:06.258Z,30
2017-05-15T04:21:46.870Z,35
2017-05-15T04:22:27.453Z,35
2017-05-15T04:23:08.027Z,35
2017-05-15T04:23:48.602Z,35
2017-05-15T04:24:29.222Z,35
2017-05-15T04:25:09.767Z,35
2017-05-15T04:25:50.378Z,35
2017-05-15T04:26:30.986Z,40
2017-05-15T04:27:11.600Z,40
2017-05-15T04:27:52.150Z,40
2017-05-15T04:28:32.747Z,40
2017-05-15T04:29:13.313Z,40
2017-05-15T04:29:53.886Z,40
2017-05-15T04:30:34.469Z,40
2017-05-15T04:31:15.043Z,40
2017-05-15T04:31:55.623Z,45
2017-05-15T04:32:36.349Z,45
2017-05-15T04:33:16.930Z,45
2017-05-15T04:33:57.497Z,45
2017-05-15T04:34:38.092Z,45
2017-05-15T04:35:18.664Z,45
2017-05-15T04:35:59.246Z,45
2017-05-15T04:36:39.873Z,50
2017-05-15T04:37:20.480Z,50
2017-05-15T04:38:01.022Z,50
2017-05-15T04:38:41.595Z,50
2017-05-15T04:39:22.175Z,50
2017-05-15T04:40:02.761Z,55
2017-05-15T04:40:43.352Z,55
2017-05-15T04:41:23.931Z,55
2017-05-15T04:42:04.531Z,55
2017-05-15T04:42:45.139Z,55
2017-05-15T04:43:25.782Z,55
2017-05-15T04:44:06.341Z,55
2017-05-15T04:44:46.913Z,55
2017-05-15T04:45:27.480Z,55
2017-05-15T04:46:11.349Z,60
2017-05-15T04:46:51.936Z,60
2017-05-15T04:47:32.521Z,60
2017-05-15T04:48:13.113Z,65
2017-05-15T04:48:53.711Z,65
2017-05-15T04:49:34.287Z,65
2017-05-15T04:50:14.855Z,70
2017-05-15T04:50:55.438Z,70
2017-05-15T04:51:36.085Z,70
2017-05-15T04:52:16.677Z,70
2017-05-15T04:52:57.280Z,70
2017-05-15T04:53:37.877Z,70
2017-05-15T04:54:18.470Z,70
2017-05-15T04:54:59.049Z,70
2017-05-15T04:55:39.628Z,70
2017-05-15T04:56:20.241Z,70
2017-05-15T04:57:00.864Z,70
2017-05-15T04:57:41.429Z,75
2017-05-15T04:58:22.003Z,75
2017-05-15T04:59:02.605Z,75
2017-05-15T04:59:43.198Z,80
2017-05-15T05:00:23.780Z,80
2017-05-15T05:01:04.348Z,85
2017-05-15T05:01:44.959Z,90
2017-05-15T05:02:25.549Z,90
2017-05-15T05:03:06.153Z,95
2017-05-15T05:03:46.766Z,95
2017-05-15T05:04:27.472Z,100
2017-05-15T05:05:08.059Z,105
2017-05-15T05:05:48.651Z,105
2017-05-15T05:06:29.249Z,105
2017-05-15T05:07:09.832Z,110
2017-05-15T05:07:50.391Z,105
2017-05-15T05:08:30.961Z,105
2017-05-15T05:09:11.528Z,110
2017-05-15T05:09:52.100Z,110
2017-05-15T05:10:32.670Z,110
2017-05-15T05:11:13.265Z,115
2017-05-15T05:11:53.848Z,120
2017-05-15T05:12:34.442Z,120
2017-05-15T05:13:15.050Z,120
2017-05-15T05:13:55.634Z,120
2017-05-15T05:14:36.228Z,115
2017-05-15T05:15:16.809Z,115
2017-05-15T05:15:57.402Z,115
2017-05-15T05:16:37.986Z,115
2017-05-15T05:17:18.571Z,115
2017-05-15T05:17:59.146Z,120
2017-05-15T05:18:39.757Z,120
2017-05-15T05:19:20.360Z,125
2017-05-15T05:20:00.942Z,125
2017-05-15T05:20:41.565Z,130
2017-05-15T05:21:22.260Z,130
2017-05-15T05:22:02.847Z,135
2017-05-15T05:22:43.473Z,130
2017-05-15T05:23:24.229Z,130
2017-05-15T05:24:04.993Z,130
2017-05-15T05:24:45.721Z,135
2017-05-15T05:25:26.270Z,135
2017-05-15T05:26:06.841Z,135
2017-05-15T05:26:47.416Z,135
2017-05-15T05:27:28.003Z,130
2017-05-15T05:28:08.582Z,130
2017-05-15T05:28:49.170Z,125
2017-05-15T05:29:29.772Z,125
2017-05-15T05:30:10.350Z,125
2017-05-15T05:30:50.926Z,125
2017-05-15T05:31:31.516Z,125
2017-05-15T05:32:12.105Z,130
2017-05-15T05:32:52.716Z,130
2017-05-15T05:33:33.289Z,135
2017-05-15T05:34:13.867Z,135
2017-05-15T05:34:54.449Z,135
2017-05-15T05:35:35.065Z,135
2017-05-15T05:36:15.637Z,135
2017-05-15T05:36:56.216Z,135
2017-05-15T05:37:36.796Z,135
2017-05-15T05:38:17.371Z,130
2017-05-15T05:38:57.961Z,130
2017-05-15T05:39:38.548Z,125
2017-05-15T05:40:19.123Z,125
2017-05-15T05:40:59.712Z,125
2017-05-15T05:41:40.301Z,125
2017-05-15T05:42:20.893Z,125
2017-05-15T05:43:01.472Z,125
2017-05-15T05:43:42.057Z,130
2017-05-15T05:44:22.633Z,130
2017-05-15T05:45:03.211Z,125
2017-05-15T05:45:43.777Z,125
2017-05-15T05:46:24.390Z,125
2017-05-15T05:47:04.979Z,125
2017-05-15T05:47:45.535Z,125
2017-05-15T05:48:26.127Z,125
2017-05-15T05:49:06.697Z,125
2017-05-15T05:49:47.287Z,125
2017-05-15T05:50:27.876Z,130
2017-05-15T05:51:08.460Z,130
2017-05-15T05:51:49.036Z,130
2017-05-15T05:52:29.634Z,130
2017-05-15T05:53:10.207Z,130
2017-05-15T05:53:50.942Z,135
2017-05-15T05:54:31.758Z,135
2017-05-15T05:55:12.357Z,140
2017-05-15T05:55:52.927Z,140
2017-05-15T05:56:33.547Z,145
2017-05-15T05:57:14.150Z,150
2017-05-15T05:57:54.718Z,155
2017-05-15T05:58:35.308Z,165
2017-05-15T05:59:15.885Z,170
2017-05-15T05:59:56.465Z,185
2017-05-15T06:00:37.075Z,190
2017-05-15T06:01:17.642Z,195
2017-05-15T06:01:58.218Z,200
2017-05-15T06:02:38.815Z,210
2017-05-15T06:03:19.393Z,205
2017-05-15T06:03:59.966Z,210
2017-05-15T06:04:40.562Z,215
2017-05-15T06:05:21.144Z,215
2017-05-15T06:06:01.722Z,210
2017-05-15T06:06:42.290Z,210
2017-05-15T06:07:22.863Z,210
2017-05-15T06:08:03.447Z,215
2017-05-15T06:08:44.031Z,215
2017-05-15T06:09:24.597Z,220
2017-05-15T06:10:05.171Z,220
2017-05-15T06:10:45.746Z,225
2017-05-15T06:11:26.313Z,230
2017-05-15T06:12:06.886Z,235
2017-05-15T06:12:47.462Z,230
2017-05-15T06:13:28.031Z,235
2017-05-15T06:14:08.610Z,235
2017-05-15T06:14:49.208Z,230
2017-05-15T06:15:29.777Z,235
2017-05-15T06:16:10.359Z,235
2017-05-15T06:16:50.962Z,240
2017-05-15T06:17:31.545Z,240
2017-05-15T06:18:12.112Z,250
2017-05-15T06:18:52.699Z,255
2017-05-15T06:19:33.270Z,265
2017-05-15T06:20:13.848Z,275
2017-05-15T06:20:54.421Z,285
2017-05-15T06:21:35.000Z,290
2017-05-15T06:22:15.570Z,290
2017-05-15T06:22:56.160Z,285
2017-05-15T06:23:36.728Z,280
2017-05-15T06:24:17.309Z,270
2017-05-15T06:24:57.891Z,260
2017-05-15T06:25:38.452Z,250
2017-05-15T06:26:20.835Z,240
2017-05-15T06:27:01.425Z,235
2017-05-15T06:27:42.000Z,230
2017-05-15T06:28:22.582Z,230
2017-05-15T06:29:03.210Z,225
2017-05-15T06:29:43.795Z,220
2017-05-15T06:30:24.358Z,210
2017-05-15T06:31:04.926Z,200
2017-05-15T06:31:45.496Z,200
2017-05-15T06:32:26.088Z,190
2017-05-15T06:33:06.676Z,190
2017-05-15T06:33:47.250Z,190
2017-05-15T06:34:27.936Z,215
2017-05-15T06:35:08.508Z,215
2017-05-15T06:35:49.097Z,215
2017-05-15T06:36:29.684Z,210
2017-05-15T06:37:10.269Z,210
2017-05-15T06:37:50.847Z,215
2017-05-15T06:38:31.441Z,215
2017-05-15T06:39:12.008Z,215
2017-05-15T06:39:52.592Z,215
2017-05-15T06:40:33.169Z,220
2017-05-15T06:41:14.649Z,220
2017-05-15T06:41:55.230Z,220
2017-05-15T06:42:35.834Z,220
2017-05-15T06:43:16.420Z,225
2017-05-15T06:43:56.989Z,225
2017-05-15T06:44:37.562Z,225
2017-05-15T06:45:18.150Z,230
2017-05-15T06:45:58.724Z,230
2017-05-15T06:46:39.331Z,230
2017-05-15T06:47:19.895Z,230
2017-05-15T06:48:00.465Z,235
2017-05-15T06:48:41.034Z,235
2017-05-15T06:49:21.605Z,240
2017-05-15T06:50:02.204Z,240
2017-05-15T06:50:42.770Z,240
2017-05-15T06:51:23.342Z,240
2017-05-15T06:52:03.932Z,245
2017-05-15T06:52:44.509Z,245
2017-05-15T06:53:25.076Z,245
2017-05-15T06:54:05.656Z,250
2017-05-15T06:54:46.247Z,250
2017-05-15T06:55:26.829Z,250
2017-05-15T06:56:07.431Z,250
2017-05-15T06:56:48.021Z,250
2017-05-15T06:57:28.614Z,250
2017-05-15T06:58:09.210Z,255
2017-05-15T06:58:49.787Z,255
2017-05-15T06:59:30.377Z,255
2017-05-15T07:00:10.967Z,260
2017-05-15T07:00:51.556Z,260
2017-05-15T07:01:32.132Z,260
2017-05-15T07:02:12.718Z,270
2017-05-15T07:02:53.315Z,265
2017-05-15T07:03:33.897Z,265
2017-05-15T07:04:14.463Z,270
2017-05-15T07:04:55.040Z,270
2017-05-15T07:05:35.610Z,270
2017-05-15T07:06:16.211Z,275
2017-05-15T07:06:56.791Z,275
2017-05-15T07:07:37.396Z,275
2017-05-15T07:08:17.978Z,275
2017-05-15T07:08:58.554Z,280
2017-05-15T07:09:39.154Z,280
2017-05-15T07:10:19.745Z,285
2017-05-15T07:11:00.324Z,285
2017-05-15T07:11:40.894Z,285
2017-05-15T07:12:21.457Z,290
2017-05-15T07:13:02.039Z,290
2017-05-15T07:13:42.632Z,295
2017-05-15T07:14:23.181Z,300
2017-05-15T07:15:03.766Z,300
2017-05-15T07:15:44.346Z,310
2017-05-15T07:16:24.932Z,310
2017-05-15T07:17:05.504Z,310
2017-05-15T07:17:46.111Z,320
2017-05-15T07:18:26.687Z,335
2017-05-15T07:19:07.288Z,360
2017-05-15T07:19:47.902Z,530
2017-05-15T07:20:28.473Z,875
2017-05-15T07:21:09.045Z,1260
2017-05-15T07:21:49.636Z,1580
2017-05-15T07:22:30.218Z,1680
2017-05-15T07:23:10.797Z,1685
2017-05-15T07:23:51.380Z,1695
2017-05-15T07:24:31.952Z,1715
2017-05-15T07:25:12.554Z,1730
2017-05-15T07:25:53.123Z,1735
2017-05-15T07:26:33.747Z,1720
2017-05-15T07:27:14.335Z,1740
2017-05-15T07:27:54.915Z,1745
2017-05-15T07:28:35.485Z,1760
2017-05-15T07:29:16.061Z,1780
2017-05-15T07:29:56.636Z,1785
2017-05-15T07:30:37.211Z,1820
2017-05-15T07:31:17.807Z,1835
2017-05-15T07:31:58.390Z,1840
2017-05-15T07:32:38.978Z,1845
2017-05-15T07:33:19.558Z,1860
2017-05-15T07:34:00.150Z,1880
2017-05-15T07:34:40.724Z,1910
2017-05-15T07:35:21.297Z,1930
2017-05-15T07:36:01.877Z,1905
2017-05-15T07:36:42.458Z,1895
2017-05-15T07:37:23.041Z,1855
2017-05-15T07:38:03.648Z,1800
2017-05-15T07:38:44.231Z,1775
2017-05-15T07:39:24.841Z,1785
2017-05-15T07:40:05.426Z,1830
2017-05-15T07:40:46.043Z,1845
2017-05-15T07:41:26.621Z,1800
2017-05-15T07:42:07.196Z,1850
2017-05-15T07:42:47.804Z,1920
2017-05-15T07:43:28.356Z,1985
2017-05-15T07:44:08.941Z,2075
2017-05-15T07:44:49.525Z,2145
2017-05-15T07:45:30.109Z,2130
2017-05-15T07:46:10.727Z,1650
2017-05-15T07:46:51.314Z,935
2017-05-15T07:47:31.887Z,455
2017-05-15T07:48:12.458Z,400
2017-05-15T07:48:53.048Z,385
2017-05-15T07:49:33.633Z,370
2017-05-15T07:50:14.213Z,360
2017-05-15T07:50:54.802Z,355
2017-05-15T07:51:35.406Z,350
2017-05-15T07:52:16.004Z,350
2017-05-15T07:52:56.586Z,345
2017-05-15T07:53:37.149Z,345
2017-05-15T07:54:17.725Z,345
2017-05-15T07:54:58.312Z,345
2017-05-15T07:55:38.922Z,345
2017-05-15T07:56:19.521Z,345
2017-05-15T07:57:00.079Z,350
2017-05-15T07:57:40.658Z,350
2017-05-15T07:58:21.242Z,350
2017-05-15T07:59:01.829Z,355
2017-05-15T07:59:42.438Z,355
2017-05-15T08:00:23.036Z,360
2017-05-15T08:01:03.614Z,360
2017-05-15T08:01:44.191Z,360
2017-05-15T08:02:24.777Z,365
2017-05-15T08:03:05.373Z,375
2017-05-15T08:03:45.949Z,390
2017-05-15T08:04:26.522Z,415
2017-05-15T08:05:07.090Z,435
2017-05-15T08:05:47.672Z,445
2017-05-15T08:06:28.249Z,505
2017-05-15T08:07:08.835Z,650
2017-05-15T08:07:49.422Z,855
2017-05-15T08:08:30.002Z,1090
2017-05-15T08:09:10.595Z,1390
2017-05-15T08:09:51.183Z,1660
2017-05-15T08:10:31.758Z,1930
2017-05-15T08:11:12.350Z,2180
2017-05-15T08:11:52.930Z,2370
2017-05-15T08:12:33.598Z,2480
2017-05-15T08:13:14.171Z,2530
2017-05-15T08:13:54.787Z,2560
2017-05-15T08:14:35.367Z,2580
2017-05-15T08:15:15.953Z,2595
2017-05-15T08:15:56.543Z,2600
2017-05-15T08:16:37.187Z,2620
2017-05-15T08:17:17.765Z,2520
2017-05-15T08:17:58.346Z,2740
2017-05-15T08:18:38.927Z,2700
2017-05-15T08:19:19.521Z,2620
2017-05-15T08:20:00.143Z,2425
2017-05-15T08:20:40.783Z,2595
2017-05-15T08:21:21.381Z,2715
2017-05-15T08:22:01.970Z,2660
2017-05-15T08:22:42.600Z,2580
2017-05-15T08:23:23.211Z,2650
2017-05-15T08:24:03.832Z,2650
2017-05-15T08:24:44.444Z,2430
2017-05-15T08:25:25.008Z,2180
2017-05-15T08:26:05.606Z,2175
2017-05-15T08:26:46.194Z,2005
2017-05-15T08:27:26.809Z,1920
2017-05-15T08:28:07.359Z,1955
2017-05-15T08:28:47.937Z,2330
2017-05-15T08:29:28.521Z,2590
2017-05-15T08:30:09.111Z,2690
2017-05-15T08:30:49.818Z,2715
2017-05-15T08:31:30.421Z,2700
2017-05-15T08:32:11.048Z,2475
2017-05-15T08:32:51.589Z,2610
2017-05-15T08:33:32.186Z,1860
2017-05-15T08:34:12.828Z,1960
2017-05-15T08:34:53.457Z,2410
2017-05-15T08:35:34.037Z,2325
2017-05-15T08:36:14.659Z,2530
2017-05-15T08:36:55.295Z,2775
2017-05-15T08:37:35.892Z,2685
2017-05-15T08:38:16.477Z,2750
2017-05-15T08:38:57.056Z,2830
2017-05-15T08:39:37.650Z,2840
2017-05-15T08:40:18.222Z,2895
2017-05-15T08:40:58.806Z,2885
2017-05-15T08:41:39.399Z,2635
2017-05-15T08:42:19.982Z,2645
2017-05-15T08:43:00.564Z,2580
2017-05-15T08:43:41.155Z,2530
2017-05-15T08:44:21.767Z,2535
2017-05-15T08:45:02.341Z,2860
2017-05-15T08:45:42.935Z,2730
2017-05-15T08:46:23.499Z,2750
2017-05-15T08:47:04.069Z,3040
2017-05-15T08:47:44.647Z,2590
2017-05-15T08:48:25.232Z,2655
2017-05-15T08:49:05.806Z,2625
2017-05-15T08:49:46.372Z,2325
2017-05-15T08:50:26.950Z,2725
2017-05-15T08:51:07.546Z,2765
2017-05-15T08:51:48.127Z,2965
2017-05-15T08:52:28.725Z,3110
2017-05-15T08:53:09.303Z,3250
2017-05-15T08:53:49.883Z,3315
2017-05-15T08:54:30.479Z,3275
2017-05-15T08:55:11.072Z,3285
2017-05-15T08:55:51.653Z,3335
2017-05-15T08:56:32.297Z,3175
2017-05-15T08:57:12.889Z,3200
2017-05-15T08:57:53.473Z,3255
2017-05-15T08:58:34.057Z,3275
2017-05-15T08:59:14.647Z,3205
2017-05-15T08:59:55.224Z,3165
2017-05-15T09:00:35.809Z,3140
2017-05-15T09:01:16.396Z,2930
2017-05-15T09:01:56.990Z,2965
2017-05-15T09:02:37.565Z,2885
2017-05-15T09:03:18.150Z,2935
2017-05-15T09:03:58.738Z,3000
2017-05-15T09:04:39.352Z,3050
2017-05-15T09:05:19.927Z,3085
2017-05-15T09:06:00.518Z,3050
2017-05-15T09:06:41.115Z,3100
2017-05-15T09:07:21.711Z,3160
2017-05-15T09:08:02.304Z,3160
2017-05-15T09:08:42.889Z,3095
2017-05-15T09:09:23.480Z,2525
2017-05-15T09:10:04.073Z,1600
2017-05-15T09:10:44.647Z,760
2017-05-15T09:11:25.243Z,615
2017-05-15T09:12:05.854Z,590
2017-05-15T09:12:46.433Z,565
2017-05-15T09:13:27.017Z,555
2017-05-15T09:14:07.615Z,550
2017-05-15T09:14:48.212Z,540
2017-05-15T09:15:28.808Z,535
2017-05-15T09:16:09.383Z,535
2017-05-15T09:16:49.955Z,545
2017-05-15T09:17:30.529Z,565
2017-05-15T09:18:11.104Z,630
2017-05-15T09:18:51.727Z,1210
2017-05-15T09:19:32.260Z,2110
2017-05-15T09:20:12.871Z,2520
2017-05-15T09:20:53.440Z,2845
2017-05-15T09:21:34.040Z,2450
2017-05-15T09:22:14.642Z,1635
2017-05-15T09:22:55.223Z,870
2017-05-15T09:23:35.816Z,585
2017-05-15T09:24:16.425Z,565
2017-05-15T09:24:57.007Z,545
2017-05-15T09:25:37.593Z,525
2017-05-15T09:26:18.176Z,520
2017-05-15T09:26:58.758Z,510
2017-05-15T09:27:39.349Z,530
2017-05-15T09:28:19.932Z,590
2017-05-15T09:29:00.518Z,1370
2017-05-15T09:29:41.114Z,2540
2017-05-15T09:30:21.696Z,3400
2017-05-15T09:31:02.277Z,3580
2017-05-15T09:31:42.871Z,3610
2017-05-15T09:32:23.458Z,3545
2017-05-15T09:33:04.068Z,3500
2017-05-15T09:33:44.695Z,3545